Terminal Aerodrome Forecast
Issued by NWS

Home | Current Version | Previous Version | Text Only | Print | Product List | Glossary Off
Versions: 1 2 3 4 5 6 7 8 9 10 11 12 13 14 15 16 17 18 19

000
FTUS43 KGRB 151140 AAA
TAFCWA
TAF AMD
KCWA 151140Z 1512/1612 08005KT 2SM -SN OVC020
     FM151500 06006KT 2SM -SN OVC015
      TEMPO 1516/1520 1SM -SN
     FM152000 05007KT 2SM -SN OVC020
     FM152300 03005KT 4SM -SN OVC020
     FM160600 36005KT P6SM BKN025=

USA.gov is the U.S. government's official web portal to all federal, state and local government web resources and services.